Time;durP1;ratioP1;P1;durP2;ratioP2;P2;SDS_P1;SDS_P2;PMS_P1;PMS_P2;Temp;Humidity;BMP_temperature;BMP_pressure;BME280_temperature;BME280_humidity;BME280_pressure;Samples;Min_cycle;Max_cycle;Signal;HPM_P1;HPM_P2
2023/01/12 00:01:17;;;;;;;15.43;8.85;;;;;;;;;;4860760;29;20166;-68
2023/01/12 00:03:42;;;;;;;14.10;8.73;;;;;;;;;;4861087;29;20061;-68
2023/01/12 00:06:08;;;;;;;15.63;8.07;;;;;;;;;;4860913;29;20436;-69
2023/01/12 00:08:34;;;;;;;14.90;7.78;;;;;;;;;;4860896;29;20038;-68
2023/01/12 00:11:01;;;;;;;13.32;7.88;;;;;;;;;;4860669;29;20056;-69
2023/01/12 00:13:28;;;;;;;14.25;7.53;;;;;;;;;;4865030;29;20121;-69
2023/01/12 00:18:43;;;;;;;18.60;8.60;;;;;;;;;;4860820;29;20108;-69
2023/01/12 00:21:08;;;;;;;12.60;7.32;;;;;;;;;;4860336;29;20108;-70
2023/01/12 00:23:34;;;;;;;13.48;7.57;;;;;;;;;;4844141;29;20063;-70
2023/01/12 00:26:00;;;;;;;15.32;7.90;;;;;;;;;;4860637;29;20431;-70
2023/01/12 00:28:25;;;;;;;20.75;10.05;;;;;;;;;;4860291;29;20033;-70
2023/01/12 00:30:51;;;;;;;12.85;8.00;;;;;;;;;;4860358;29;20395;-70
2023/01/12 00:33:18;;;;;;;19.58;8.35;;;;;;;;;;4862165;29;20151;-70
2023/01/12 00:35:44;;;;;;;19.60;9.32;;;;;;;;;;4878867;29;20029;-70
2023/01/12 00:38:10;;;;;;;19.58;7.82;;;;;;;;;;4878820;29;20037;-70
2023/01/12 00:40:36;;;;;;;14.38;8.32;;;;;;;;;;4878247;29;20514;-69
2023/01/12 00:45:49;;;;;;;27.40;13.80;;;;;;;;;;4860267;29;20522;-69
2023/01/12 00:48:16;;;;;;;15.02;8.02;;;;;;;;;;4860009;29;20029;-69
2023/01/12 00:50:42;;;;;;;10.93;7.18;;;;;;;;;;4859996;29;20041;-70
2023/01/12 00:53:08;;;;;;;23.48;9.02;;;;;;;;;;4859938;29;20040;-70
2023/01/12 00:55:33;;;;;;;13.82;7.45;;;;;;;;;;4860136;29;20454;-70
2023/01/12 00:57:59;;;;;;;16.33;6.93;;;;;;;;;;4860842;29;20120;-70
2023/01/12 01:00:25;;;;;;;13.63;6.85;;;;;;;;;;4878369;29;20399;-70
2023/01/12 01:02:50;;;;;;;10.20;6.13;;;;;;;;;;4878262;29;20088;-70
2023/01/12 01:05:16;;;;;;;12.20;6.50;;;;;;;;;;4878304;29;20119;-70
2023/01/12 01:07:42;;;;;;;11.52;6.60;;;;;;;;;;4878285;29;20045;-69
2023/01/12 01:10:09;;;;;;;10.07;6.10;;;;;;;;;;4877625;29;20041;-70
2023/01/12 01:12:35;;;;;;;13.20;6.95;;;;;;;;;;4878241;29;20033;-70
2023/01/12 01:15:01;;;;;;;14.45;6.93;;;;;;;;;;4874574;29;20036;-70
2023/01/12 01:17:27;;;;;;;9.85;5.90;;;;;;;;;;4859785;29;20029;-70
2023/01/12 01:19:53;;;;;;;24.02;7.38;;;;;;;;;;4859494;29;20427;-70
2023/01/12 01:22:19;;;;;;;14.40;7.78;;;;;;;;;;4842890;29;20037;-69
2023/01/12 01:24:47;;;;;;;15.32;6.45;;;;;;;;;;4859490;29;20075;-70
2023/01/12 01:27:13;;;;;;;13.23;7.18;;;;;;;;;;4859124;29;20065;-70
2023/01/12 01:29:39;;;;;;;11.75;6.78;;;;;;;;;;4858539;29;20053;-70
2023/01/12 01:32:04;;;;;;;11.40;6.18;;;;;;;;;;4851617;29;20512;-70
2023/01/12 01:34:30;;;;;;;11.45;6.88;;;;;;;;;;4858996;29;20041;-70
2023/01/12 01:36:56;;;;;;;10.52;6.38;;;;;;;;;;4859433;29;20531;-70
2023/01/12 01:39:22;;;;;;;15.60;6.82;;;;;;;;;;4859043;29;20068;-70
2023/01/12 01:41:47;;;;;;;10.23;6.25;;;;;;;;;;4859232;29;20021;-70
2023/01/12 01:44:28;;;;;;;13.80;7.60;;;;;;;;;;4868976;29;20040;-70
2023/01/12 01:47:07;;;;;;;14.95;7.57;;;;;;;;;;4878418;29;20052;-70
2023/01/12 01:49:38;;;;;;;12.25;7.30;;;;;;;;;;4877566;29;20037;-70
2023/01/12 01:52:22;;;;;;;9.05;6.05;;;;;;;;;;4877690;29;20049;-70
2023/01/12 01:55:07;;;;;;;9.85;5.63;;;;;;;;;;4877950;29;20033;-69
2023/01/12 01:58:01;;;;;;;8.63;5.25;;;;;;;;;;4874273;29;20033;-69
2023/01/12 02:00:27;;;;;;;8.63;5.38;;;;;;;;;;4870877;29;20061;-69
2023/01/12 02:02:54;;;;;;;8.82;4.65;;;;;;;;;;4877251;29;20707;-69
2023/01/12 02:05:23;;;;;;;8.68;4.90;;;;;;;;;;4874091;29;20407;-70
2023/01/12 02:07:50;;;;;;;10.57;4.75;;;;;;;;;;4878437;29;20041;-70
2023/01/12 02:10:16;;;;;;;12.43;6.22;;;;;;;;;;4878077;29;20550;-70
2023/01/12 02:18:26;;;;;;;8.63;5.70;;;;;;;;;;4871124;29;20041;-70
2023/01/12 02:21:20;;;;;;;7.43;4.80;;;;;;;;;;4877997;29;20049;-70
2023/01/12 02:24:13;;;;;;;7.47;5.03;;;;;;;;;;4874619;29;20575;-69
2023/01/12 02:27:13;;;;;;;9.68;5.55;;;;;;;;;;4866073;29;20033;-69
2023/01/12 02:30:06;;;;;;;8.48;4.88;;;;;;;;;;4867394;29;20097;-70
2023/01/12 02:32:51;;;;;;;6.72;4.68;;;;;;;;;;4875462;29;20089;-70
2023/01/12 02:35:52;;;;;;;9.57;5.53;;;;;;;;;;4877960;29;20041;-71
2023/01/12 02:38:17;;;;;;;8.25;5.22;;;;;;;;;;4866142;29;20065;-70
2023/01/12 02:40:58;;;;;;;10.02;5.50;;;;;;;;;;4881793;29;20516;-70
2023/01/12 02:43:28;;;;;;;9.55;5.35;;;;;;;;;;4874644;29;20101;-70
2023/01/12 02:46:13;;;;;;;8.02;4.72;;;;;;;;;;4882082;29;20038;-70
2023/01/12 02:48:57;;;;;;;11.77;5.15;;;;;;;;;;4878387;29;20030;-70
2023/01/12 02:51:37;;;;;;;12.10;4.95;;;;;;;;;;4878851;29;20036;-70
2023/01/12 02:54:10;;;;;;;8.80;5.07;;;;;;;;;;4879982;29;20033;-70
2023/01/12 02:56:41;;;;;;;10.77;5.75;;;;;;;;;;4881789;29;20045;-70
2023/01/12 02:59:12;;;;;;;8.60;5.22;;;;;;;;;;4875785;29;20037;-70
2023/01/12 03:01:39;;;;;;;7.45;4.53;;;;;;;;;;4880698;29;20105;-70
2023/01/12 03:04:07;;;;;;;12.43;8.18;;;;;;;;;;4881671;29;20029;-70
2023/01/12 03:06:39;;;;;;;15.63;6.93;;;;;;;;;;4881364;29;20045;-70
2023/01/12 03:09:04;;;;;;;22.70;9.48;;;;;;;;;;4881577;29;20093;-70
2023/01/12 03:11:30;;;;;;;20.50;9.73;;;;;;;;;;4879596;29;20479;-70
2023/01/12 03:14:00;;;;;;;31.60;10.10;;;;;;;;;;4875769;29;20029;-70
2023/01/12 03:16:30;;;;;;;27.35;10.10;;;;;;;;;;4872824;29;20029;-70
2023/01/12 03:19:20;;;;;;;15.90;7.85;;;;;;;;;;4873733;29;20032;-70
2023/01/12 03:22:06;;;;;;;12.50;7.43;;;;;;;;;;4870455;29;20042;-70
2023/01/12 03:24:36;;;;;;;17.17;7.28;;;;;;;;;;4879827;29;20063;-70
2023/01/12 03:27:33;;;;;;;15.52;7.88;;;;;;;;;;4881185;29;20041;-70
2023/01/12 03:30:16;;;;;;;14.55;6.63;;;;;;;;;;4872386;29;20123;-69
2023/01/12 03:32:42;;;;;;;12.73;6.88;;;;;;;;;;4881328;29;20090;-69
2023/01/12 03:35:08;;;;;;;15.55;7.43;;;;;;;;;;4873327;29;20029;-69
2023/01/12 03:37:57;;;;;;;14.98;7.03;;;;;;;;;;4881139;29;20045;-70
2023/01/12 03:40:28;;;;;;;11.43;6.47;;;;;;;;;;4872875;29;20110;-70
2023/01/12 03:43:16;;;;;;;10.57;6.85;;;;;;;;;;4876336;29;20445;-70
2023/01/12 03:45:44;;;;;;;11.20;6.05;;;;;;;;;;4880438;29;20047;-70
2023/01/12 03:48:16;;;;;;;10.68;6.80;;;;;;;;;;4880560;29;20033;-71
2023/01/12 03:50:46;;;;;;;14.00;7.70;;;;;;;;;;4871745;29;20125;-70
2023/01/12 03:53:14;;;;;;;13.05;6.65;;;;;;;;;;4880467;29;20039;-70
2023/01/12 03:55:41;;;;;;;13.73;6.32;;;;;;;;;;4880490;29;20029;-70
2023/01/12 03:58:07;;;;;;;51.30;9.95;;;;;;;;;;4880070;29;20041;-70
2023/01/12 04:00:33;;;;;;;16.92;7.35;;;;;;;;;;4879988;29;20037;-70
2023/01/12 04:03:17;;;;;;;13.80;7.25;;;;;;;;;;4867594;29;20029;-70
2023/01/12 04:05:44;;;;;;;19.88;8.65;;;;;;;;;;4864705;29;20056;-70
2023/01/12 04:08:12;;;;;;;15.20;8.27;;;;;;;;;;4880419;29;20041;-70
2023/01/12 04:10:38;;;;;;;16.08;9.30;;;;;;;;;;4880023;29;20041;-71
2023/01/12 04:13:03;;;;;;;19.55;10.02;;;;;;;;;;4872187;29;20040;-70
2023/01/12 04:15:29;;;;;;;17.75;10.82;;;;;;;;;;4879340;29;20036;-70
2023/01/12 04:17:55;;;;;;;17.40;10.25;;;;;;;;;;4879965;29;20073;-69
2023/01/12 04:20:21;;;;;;;19.48;8.38;;;;;;;;;;4879774;29;20081;-70
2023/01/12 04:22:47;;;;;;;17.48;9.30;;;;;;;;;;4859993;29;20078;-70
2023/01/12 04:25:15;;;;;;;15.05;7.90;;;;;;;;;;4875670;29;20519;-70
2023/01/12 04:27:48;;;;;;;20.48;8.85;;;;;;;;;;4877040;29;20118;-70
2023/01/12 04:30:16;;;;;;;18.98;8.70;;;;;;;;;;4858946;29;20052;-70
2023/01/12 04:32:43;;;;;;;18.63;8.48;;;;;;;;;;4870873;29;20025;-69
2023/01/12 04:35:13;;;;;;;16.27;9.45;;;;;;;;;;4871942;29;20067;-70
2023/01/12 04:37:39;;;;;;;16.33;8.93;;;;;;;;;;4872065;29;20496;-69
2023/01/12 04:40:06;;;;;;;18.80;9.93;;;;;;;;;;4870526;29;20045;-69
2023/01/12 04:45:16;;;;;;;18.50;8.73;;;;;;;;;;4873137;29;20097;-70
2023/01/12 04:47:42;;;;;;;23.45;9.00;;;;;;;;;;4871920;29;20112;-70
2023/01/12 04:50:08;;;;;;;23.95;9.38;;;;;;;;;;4878682;29;20059;-70
2023/01/12 04:52:35;;;;;;;29.02;9.65;;;;;;;;;;4879329;29;20498;-71
2023/01/12 04:55:01;;;;;;;19.45;7.47;;;;;;;;;;4871593;29;20530;-70
2023/01/12 04:57:27;;;;;;;20.48;8.90;;;;;;;;;;4863217;29;20033;-71
2023/01/12 04:59:53;;;;;;;19.80;9.95;;;;;;;;;;4864517;29;20032;-70
2023/01/12 05:02:19;;;;;;;21.38;9.82;;;;;;;;;;4871017;29;20037;-69
2023/01/12 05:04:48;;;;;;;28.75;10.10;;;;;;;;;;4871063;29;20043;-70
2023/01/12 05:07:14;;;;;;;20.25;9.32;;;;;;;;;;4871505;29;20043;-70
2023/01/12 05:12:23;;;;;;;21.67;10.93;;;;;;;;;;4875333;29;20146;-70
2023/01/12 05:14:49;;;;;;;29.35;14.32;;;;;;;;;;4871451;29;20096;-70
2023/01/12 05:17:15;;;;;;;23.55;10.77;;;;;;;;;;4877502;29;20041;-70
2023/01/12 05:19:41;;;;;;;15.98;9.73;;;;;;;;;;4869149;29;20075;-70
2023/01/12 05:22:07;;;;;;;19.65;11.38;;;;;;;;;;4877397;29;20467;-70
2023/01/12 05:24:33;;;;;;;17.13;9.20;;;;;;;;;;4877786;29;20021;-70
2023/01/12 05:27:00;;;;;;;17.60;9.80;;;;;;;;;;4877647;29;20068;-70
2023/01/12 05:29:26;;;;;;;22.50;8.73;;;;;;;;;;4876997;29;20029;-71
2023/01/12 05:31:52;;;;;;;17.95;8.15;;;;;;;;;;4870929;29;20037;-70
2023/01/12 05:34:18;;;;;;;19.13;8.85;;;;;;;;;;4871630;29;20398;-69
2023/01/12 05:36:45;;;;;;;26.65;10.25;;;;;;;;;;4874903;29;20090;-70
2023/01/12 05:39:11;;;;;;;29.98;9.15;;;;;;;;;;4867646;29;20037;-70
2023/01/12 05:41:36;;;;;;;17.25;8.80;;;;;;;;;;4876480;29;20123;-69
2023/01/12 05:44:02;;;;;;;23.52;8.82;;;;;;;;;;4878407;29;20425;-70
2023/01/12 05:46:32;;;;;;;21.77;9.52;;;;;;;;;;4870279;29;20232;-71
2023/01/12 05:48:58;;;;;;;21.63;10.48;;;;;;;;;;4864028;29;20077;-71
2023/01/12 05:51:26;;;;;;;22.80;9.82;;;;;;;;;;4878188;29;20123;-70
2023/01/12 05:53:51;;;;;;;33.03;10.88;;;;;;;;;;4862941;29;20028;-72
2023/01/12 05:56:20;;;;;;;31.55;11.57;;;;;;;;;;4870291;29;20033;-71
2023/01/12 05:58:57;;;;;;;39.17;12.02;;;;;;;;;;4867389;29;20040;-71
2023/01/12 06:01:24;;;;;;;39.20;12.50;;;;;;;;;;4866631;29;20068;-72
2023/01/12 06:03:52;;;;;;;37.95;12.70;;;;;;;;;;4869977;29;20134;-71
2023/01/12 06:06:20;;;;;;;45.97;13.20;;;;;;;;;;4869849;29;20060;-70
2023/01/12 06:08:45;;;;;;;36.65;11.00;;;;;;;;;;4869657;29;20029;-71
2023/01/12 06:13:55;;;;;;;20.67;8.88;;;;;;;;;;4877001;29;20464;-71
2023/01/12 06:13:58;;;;;;;24.33;10.82;;;;;;;;;;4870892;29;20499;-71
2023/01/12 06:16:25;;;;;;;23.30;9.57;;;;;;;;;;4868610;29;20032;-71
2023/01/12 06:18:51;;;;;;;35.00;12.93;;;;;;;;;;4866369;29;20568;-71
2023/01/12 06:21:17;;;;;;;63.85;13.98;;;;;;;;;;4875481;29;20111;-71
2023/01/12 06:23:43;;;;;;;29.73;11.80;;;;;;;;;;4875936;29;20495;-71
2023/01/12 06:26:08;;;;;;;34.40;13.73;;;;;;;;;;4876236;29;20033;-71
2023/01/12 06:28:38;;;;;;;39.13;13.48;;;;;;;;;;4868553;29;20101;-71
2023/01/12 06:31:07;;;;;;;31.42;12.77;;;;;;;;;;4876391;29;20037;-72
2023/01/12 06:33:33;;;;;;;36.63;12.45;;;;;;;;;;4860799;29;20033;-70
2023/01/12 06:35:59;;;;;;;30.60;12.13;;;;;;;;;;4875380;29;20040;-71
2023/01/12 06:38:28;;;;;;;18.02;11.60;;;;;;;;;;4876512;29;20029;-71
2023/01/12 06:40:56;;;;;;;26.40;11.60;;;;;;;;;;4876212;29;20101;-72
2023/01/12 06:43:23;;;;;;;35.53;12.00;;;;;;;;;;4876201;29;20150;-71
2023/01/12 06:45:53;;;;;;;38.10;12.10;;;;;;;;;;4865655;29;20034;-71
2023/01/12 06:48:21;;;;;;;19.52;10.48;;;;;;;;;;4856505;29;20057;-72
2023/01/12 06:50:47;;;;;;;18.95;9.88;;;;;;;;;;4867802;29;20079;-72
2023/01/12 06:53:12;;;;;;;26.27;10.75;;;;;;;;;;4869837;29;20061;-72
2023/01/12 06:55:38;;;;;;;27.95;12.88;;;;;;;;;;4866733;29;20037;-71
2023/01/12 06:58:04;;;;;;;28.08;15.48;;;;;;;;;;4864571;29;20037;-72
2023/01/12 07:00:31;;;;;;;27.25;14.32;;;;;;;;;;4872615;29;20089;-72
2023/01/12 07:02:57;;;;;;;23.70;13.45;;;;;;;;;;4869028;29;20074;-72
2023/01/12 07:05:23;;;;;;;20.33;10.95;;;;;;;;;;4875543;29;20459;-72
2023/01/12 07:07:55;;;;;;;31.88;11.73;;;;;;;;;;4875742;29;20116;-72
2023/01/12 07:10:21;;;;;;;22.25;10.27;;;;;;;;;;4875734;29;20112;-71
2023/01/12 07:12:46;;;;;;;29.17;12.50;;;;;;;;;;4868319;29;20542;-72
2023/01/12 07:15:13;;;;;;;22.48;11.65;;;;;;;;;;4876043;29;20044;-72
2023/01/12 07:17:38;;;;;;;24.77;13.20;;;;;;;;;;4868445;29;20111;-72
2023/01/12 07:20:05;;;;;;;27.27;13.98;;;;;;;;;;4871052;29;20113;-72
2023/01/12 07:22:30;;;;;;;34.50;16.00;;;;;;;;;;4873569;29;20037;-71
2023/01/12 07:24:56;;;;;;;27.05;14.52;;;;;;;;;;4872185;29;20103;-70
2023/01/12 07:27:22;;;;;;;35.42;14.25;;;;;;;;;;4873983;29;20033;-71
2023/01/12 07:29:47;;;;;;;37.10;15.55;;;;;;;;;;4879832;29;20108;-71
2023/01/12 07:32:13;;;;;;;28.88;14.75;;;;;;;;;;4860683;29;20526;-72
2023/01/12 07:34:39;;;;;;;26.75;15.60;;;;;;;;;;4877612;29;20523;-70
2023/01/12 07:37:05;;;;;;;27.90;15.55;;;;;;;;;;4862154;29;20120;-72
2023/01/12 07:39:31;;;;;;;27.70;15.40;;;;;;;;;;4876742;29;20130;-72
2023/01/12 07:44:41;;;;;;;30.20;11.57;;;;;;;;;;4878198;29;20443;-71
2023/01/12 07:47:06;;;;;;;23.98;12.68;;;;;;;;;;4873642;29;20112;-71
2023/01/12 07:49:32;;;;;;;18.25;10.13;;;;;;;;;;4870370;29;20045;-72
2023/01/12 07:51:58;;;;;;;20.77;10.07;;;;;;;;;;4874282;29;20104;-77
2023/01/12 07:54:23;;;;;;;17.13;9.55;;;;;;;;;;4858684;29;20074;-72
2023/01/12 07:56:49;;;;;;;20.27;9.95;;;;;;;;;;4875145;29;20028;-71
2023/01/12 07:59:16;;;;;;;20.20;8.55;;;;;;;;;;4873768;29;20041;-69
2023/01/12 08:01:42;;;;;;;16.08;8.13;;;;;;;;;;4868933;29;20058;-72
2023/01/12 08:04:07;;;;;;;18.63;10.07;;;;;;;;;;4879190;29;20563;-71
2023/01/12 08:06:34;;;;;;;21.95;10.10;;;;;;;;;;4871685;29;20519;-73
2023/01/12 08:08:59;;;;;;;23.92;10.93;;;;;;;;;;4875925;29;20144;-73
2023/01/12 08:11:25;;;;;;;20.55;10.55;;;;;;;;;;4873800;29;20133;-71
2023/01/12 08:13:56;;;;;;;24.02;10.18;;;;;;;;;;4871298;29;20294;-71
2023/01/12 08:16:37;;;;;;;18.25;10.40;;;;;;;;;;4878064;29;20032;-70
2023/01/12 08:19:10;;;;;;;18.73;10.93;;;;;;;;;;4865303;29;20076;-72
2023/01/12 08:21:44;;;;;;;20.98;11.23;;;;;;;;;;4869270;29;20044;-73
2023/01/12 08:24:14;;;;;;;23.30;12.73;;;;;;;;;;4868988;29;20491;-72
2023/01/12 08:26:43;;;;;;;26.77;14.50;;;;;;;;;;4874649;29;20029;-71
2023/01/12 08:29:16;;;;;;;20.25;12.05;;;;;;;;;;4876095;29;20538;-71
2023/01/12 08:31:42;;;;;;;20.27;11.30;;;;;;;;;;4875690;29;20068;-71
2023/01/12 08:34:08;;;;;;;15.68;10.20;;;;;;;;;;4867134;29;20060;-71
2023/01/12 08:36:36;;;;;;;22.67;10.38;;;;;;;;;;4874617;29;20056;-71
2023/01/12 08:39:03;;;;;;;19.02;9.80;;;;;;;;;;4866418;29;20460;-72
2023/01/12 08:41:33;;;;;;;17.00;9.55;;;;;;;;;;4872770;29;20496;-71
2023/01/12 08:44:09;;;;;;;16.30;9.10;;;;;;;;;;4876440;29;20025;-71
2023/01/12 08:46:53;;;;;;;14.18;7.43;;;;;;;;;;4877103;29;20033;-71
2023/01/12 08:49:24;;;;;;;13.57;6.75;;;;;;;;;;4869748;29;20139;-72
2023/01/12 08:51:50;;;;;;;12.35;7.68;;;;;;;;;;4876462;29;20125;-71
2023/01/12 08:54:17;;;;;;;16.50;9.30;;;;;;;;;;4877024;29;20029;-70
2023/01/12 08:56:43;;;;;;;14.27;8.35;;;;;;;;;;4878101;29;20041;-72
2023/01/12 08:59:08;;;;;;;13.20;7.90;;;;;;;;;;4872905;29;20439;-71
2023/01/12 09:01:34;;;;;;;19.35;9.68;;;;;;;;;;4873715;29;20040;-71
2023/01/12 09:04:00;;;;;;;15.15;8.45;;;;;;;;;;4870386;29;20029;-71
2023/01/12 09:06:29;;;;;;;18.75;8.60;;;;;;;;;;4863027;29;20124;-71
2023/01/12 09:09:00;;;;;;;20.45;11.07;;;;;;;;;;4862339;29;20033;-71
2023/01/12 09:11:28;;;;;;;13.70;8.25;;;;;;;;;;4863296;29;20044;-71
2023/01/12 09:13:55;;;;;;;19.20;9.68;;;;;;;;;;4869737;29;20108;-71
2023/01/12 09:16:21;;;;;;;19.88;9.70;;;;;;;;;;4876856;29;20040;-70
2023/01/12 09:18:46;;;;;;;13.27;7.97;;;;;;;;;;4875477;29;20033;-71
2023/01/12 09:21:14;;;;;;;13.40;7.85;;;;;;;;;;4870882;29;20040;-71
2023/01/12 09:23:41;;;;;;;15.90;9.10;;;;;;;;;;4876914;29;20033;-70
2023/01/12 09:26:10;;;;;;;24.25;11.77;;;;;;;;;;4871133;29;20037;-72
2023/01/12 09:28:36;;;;;;;15.75;9.35;;;;;;;;;;4862307;29;20041;-71
2023/01/12 09:31:10;;;;;;;17.15;9.20;;;;;;;;;;4880423;29;20045;-71
2023/01/12 09:33:37;;;;;;;19.58;9.00;;;;;;;;;;4871103;29;20033;-70
2023/01/12 09:36:05;;;;;;;14.63;8.65;;;;;;;;;;4867729;29;20112;-71
2023/01/12 09:38:31;;;;;;;15.35;8.43;;;;;;;;;;4858380;29;20033;-72
2023/01/12 09:41:00;;;;;;;13.43;9.15;;;;;;;;;;4868845;29;20071;-71
2023/01/12 09:49:17;;;;;;;15.52;9.02;;;;;;;;;;4869512;29;20071;-71
2023/01/12 09:51:58;;;;;;;16.38;8.35;;;;;;;;;;4869440;29;20085;-71
2023/01/12 09:54:24;;;;;;;11.88;6.97;;;;;;;;;;4870995;29;20056;-71
2023/01/12 09:57:02;;;;;;;15.45;6.13;;;;;;;;;;4873596;29;20107;-71
2023/01/12 09:59:41;;;;;;;19.48;7.75;;;;;;;;;;4872784;29;20351;-70
2023/01/12 10:02:11;;;;;;;10.15;6.65;;;;;;;;;;4865621;29;20069;-72
2023/01/12 10:04:39;;;;;;;11.82;6.40;;;;;;;;;;4872063;29;20125;-71
2023/01/12 10:07:07;;;;;;;13.40;6.75;;;;;;;;;;4866586;29;20057;-71
2023/01/12 10:09:36;;;;;;;11.35;6.18;;;;;;;;;;4864477;29;20089;-73
2023/01/12 10:12:31;;;;;;;11.85;6.60;;;;;;;;;;4869575;29;20107;-74
2023/01/12 10:15:26;;;;;;;12.23;6.30;;;;;;;;;;4868979;29;20135;-72
2023/01/12 10:18:05;;;;;;;12.52;6.50;;;;;;;;;;4870537;29;20088;-72
2023/01/12 10:20:43;;;;;;;13.77;6.80;;;;;;;;;;4868405;29;20041;-71
2023/01/12 10:23:08;;;;;;;14.88;7.10;;;;;;;;;;4875304;29;20203;-70
2023/01/12 10:25:47;;;;;;;21.08;8.20;;;;;;;;;;4869033;29;20033;-70
2023/01/12 10:28:29;;;;;;;13.95;6.80;;;;;;;;;;4865669;29;20116;-70
2023/01/12 10:30:55;;;;;;;12.70;7.68;;;;;;;;;;4873345;29;20068;-70
2023/01/12 10:33:27;;;;;;;13.48;8.10;;;;;;;;;;4870939;29;20510;-71
2023/01/12 10:36:04;;;;;;;16.20;8.70;;;;;;;;;;4876029;29;20033;-71
2023/01/12 10:38:51;;;;;;;12.20;6.72;;;;;;;;;;4876455;29;20052;-71
2023/01/12 10:41:23;;;;;;;16.95;8.30;;;;;;;;;;4867571;29;20037;-71
2023/01/12 10:44:13;;;;;;;19.70;8.05;;;;;;;;;;4883120;29;20043;-71
2023/01/12 10:46:39;;;;;;;13.05;8.00;;;;;;;;;;4870070;29;20049;-71
2023/01/12 10:49:17;;;;;;;18.65;9.95;;;;;;;;;;4867401;29;20032;-70
2023/01/12 10:51:49;;;;;;;11.80;6.85;;;;;;;;;;4887589;29;20036;-70
2023/01/12 10:54:21;;;;;;;14.25;7.30;;;;;;;;;;4867100;29;20093;-71
2023/01/12 10:57:12;;;;;;;12.80;6.70;;;;;;;;;;4871527;29;20111;-71
2023/01/12 10:59:40;;;;;;;24.20;8.10;;;;;;;;;;4865000;29;20510;-71
2023/01/12 11:02:10;;;;;;;14.48;7.65;;;;;;;;;;4872140;29;20028;-71
2023/01/12 11:04:38;;;;;;;10.68;7.20;;;;;;;;;;4871165;29;20372;-71
2023/01/12 11:07:27;;;;;;;22.15;8.73;;;;;;;;;;4872083;29;20105;-71
2023/01/12 11:09:56;;;;;;;20.38;9.80;;;;;;;;;;4875769;29;20041;-71
2023/01/12 11:12:33;;;;;;;16.60;7.88;;;;;;;;;;4869864;29;20361;-70
2023/01/12 11:15:01;;;;;;;23.77;8.82;;;;;;;;;;4877952;29;20061;-72
2023/01/12 11:17:51;;;;;;;20.73;11.32;;;;;;;;;;4870186;29;20130;-72
2023/01/12 11:20:45;;;;;;;15.60;7.85;;;;;;;;;;4878086;29;20414;-72
2023/01/12 11:23:27;;;;;;;20.77;6.95;;;;;;;;;;4873839;29;20120;-72
2023/01/12 11:25:54;;;;;;;14.45;6.95;;;;;;;;;;4876609;29;20108;-72
2023/01/12 11:28:32;;;;;;;13.23;6.85;;;;;;;;;;4870844;29;20036;-72
2023/01/12 11:31:06;;;;;;;10.02;6.40;;;;;;;;;;4860871;29;20496;-71
2023/01/12 11:33:55;;;;;;;23.58;8.80;;;;;;;;;;4890133;29;20040;-72
2023/01/12 11:36:27;;;;;;;12.13;7.28;;;;;;;;;;4875366;29;20104;-71
2023/01/12 11:39:17;;;;;;;19.27;8.73;;;;;;;;;;4877895;29;20041;-71
2023/01/12 11:45:20;;;;;;;12.48;7.32;;;;;;;;;;4866124;29;20515;-71
2023/01/12 11:47:55;;;;;;;21.42;7.32;;;;;;;;;;4857240;29;20110;-72
2023/01/12 11:50:24;;;;;;;15.00;7.10;;;;;;;;;;4874135;29;20124;-71
2023/01/12 11:52:51;;;;;;;11.93;6.80;;;;;;;;;;4866862;29;20021;-73
2023/01/12 11:55:31;;;;;;;14.40;7.03;;;;;;;;;;4875309;29;20040;-72
2023/01/12 11:58:07;;;;;;;9.82;6.35;;;;;;;;;;4874894;29;20043;-72
2023/01/12 12:00:39;;;;;;;8.45;6.07;;;;;;;;;;4877598;29;20071;-73
2023/01/12 12:04:04;;;;;;;10.05;6.40;;;;;;;;;;4870295;29;20029;-72
2023/01/12 12:06:35;;;;;;;24.35;7.43;;;;;;;;;;4779021;30;20052;-72
2023/01/12 12:09:13;;;;;;;17.77;7.80;;;;;;;;;;4777042;30;20047;-72
2023/01/12 12:12:08;;;;;;;11.30;7.00;;;;;;;;;;4778469;29;20048;-72
2023/01/12 12:14:53;;;;;;;11.35;7.50;;;;;;;;;;4782682;30;20031;-72
2023/01/12 12:17:47;;;;;;;10.32;5.75;;;;;;;;;;4776761;30;20107;-71
2023/01/12 12:20:37;;;;;;;10.40;5.15;;;;;;;;;;4782154;30;20051;-72
2023/01/12 12:23:35;;;;;;;8.38;5.18;;;;;;;;;;4783003;30;20050;-71
2023/01/12 12:26:06;;;;;;;9.95;4.70;;;;;;;;;;4778509;30;20553;-72
2023/01/12 12:28:32;;;;;;;6.75;4.00;;;;;;;;;;4785701;30;20494;-72
2023/01/12 12:31:16;;;;;;;6.03;3.97;;;;;;;;;;4784540;30;20093;-72
2023/01/12 12:34:12;;;;;;;11.15;4.32;;;;;;;;;;4784962;30;20043;-71
2023/01/12 12:36:52;;;;;;;7.90;4.50;;;;;;;;;;4791517;29;20055;-71
2023/01/12 12:39:21;;;;;;;14.95;6.22;;;;;;;;;;4803136;29;20129;-72
2023/01/12 12:45:17;;;;;;;11.45;5.00;;;;;;;;;;4833799;29;20085;-72
2023/01/12 12:48:14;;;;;;;21.90;7.20;;;;;;;;;;4820722;29;20047;-72
2023/01/12 12:50:55;;;;;;;13.18;6.20;;;;;;;;;;4818883;29;20074;-72
2023/01/12 12:53:37;;;;;;;11.88;5.70;;;;;;;;;;4810681;29;20082;-72
2023/01/12 12:56:06;;;;;;;18.10;5.95;;;;;;;;;;4805954;29;20068;-71
2023/01/12 12:58:48;;;;;;;12.15;5.78;;;;;;;;;;4819543;29;20039;-73
2023/01/12 13:01:23;;;;;;;9.30;5.00;;;;;;;;;;4809964;29;20625;-72
2023/01/12 13:03:54;;;;;;;8.20;5.55;;;;;;;;;;4809079;29;20123;-73
2023/01/12 13:06:34;;;;;;;16.50;6.47;;;;;;;;;;4808605;29;20525;-72
2023/01/12 13:09:07;;;;;;;14.32;7.70;;;;;;;;;;4817486;29;20081;-72
2023/01/12 13:11:47;;;;;;;;;;;;;;;;;;4814408;29;20476;-72
2023/01/12 13:14:25;;;;;;;11.23;5.00;;;;;;;;;;4817396;29;19948;-73
2023/01/12 13:16:53;;;;;;;9.02;4.68;;;;;;;;;;4817923;29;20038;-73
2023/01/12 13:19:38;;;;;;;8.43;4.82;;;;;;;;;;4815267;29;20046;-72
2023/01/12 13:22:41;;;;;;;7.28;5.00;;;;;;;;;;4815164;29;20089;-72
2023/01/12 13:25:10;;;;;;;22.88;6.55;;;;;;;;;;4849715;29;20049;-71
2023/01/12 13:28:00;;;;;;;11.60;5.45;;;;;;;;;;4873624;29;20052;-71
2023/01/12 13:30:25;;;;;;;9.32;4.85;;;;;;;;;;4869086;29;20040;-71
2023/01/12 13:33:16;;;;;;;14.82;6.53;;;;;;;;;;4869684;29;20431;-70
2023/01/12 13:35:45;;;;;;;11.25;4.95;;;;;;;;;;4870483;29;20499;-72
2023/01/12 13:38:32;;;;;;;9.07;5.53;;;;;;;;;;4869286;29;20309;-73
2023/01/12 13:41:12;;;;;;;20.40;6.20;;;;;;;;;;4876570;29;20483;-72
2023/01/12 13:43:58;;;;;;;14.07;6.22;;;;;;;;;;4871123;29;20499;-73
2023/01/12 13:46:27;;;;;;;15.52;7.10;;;;;;;;;;4871431;29;20069;-71
2023/01/12 13:48:54;;;;;;;18.48;6.47;;;;;;;;;;4867768;29;20041;-71
2023/01/12 13:51:52;;;;;;;21.48;8.10;;;;;;;;;;4858304;29;20492;-73
2023/01/12 13:54:17;;;;;;;14.57;6.97;;;;;;;;;;4868152;29;20045;-71
2023/01/12 13:56:57;;;;;;;8.63;5.68;;;;;;;;;;4862836;29;20336;-72
2023/01/12 13:59:24;;;;;;;13.38;6.15;;;;;;;;;;4872699;29;20537;-71
2023/01/12 14:01:54;;;;;;;11.80;5.07;;;;;;;;;;4876665;29;20056;-71
2023/01/12 14:04:38;;;;;;;10.93;5.20;;;;;;;;;;4873612;29;20451;-71
2023/01/12 14:07:23;;;;;;;7.95;5.60;;;;;;;;;;4873923;29;20558;-72
2023/01/12 14:10:27;;;;;;;10.82;5.32;;;;;;;;;;4868381;29;20041;-72
2023/01/12 14:12:55;;;;;;;8.07;5.10;;;;;;;;;;4814117;29;20050;-71
2023/01/12 14:18:16;;;;;;;7.70;5.53;;;;;;;;;;4818817;29;20046;-72
2023/01/12 14:20:48;;;;;;;19.88;7.32;;;;;;;;;;4826252;29;20046;-72
2023/01/12 14:23:26;;;;;;;13.63;6.40;;;;;;;;;;4827081;29;20058;-72
2023/01/12 14:26:12;;;;;;;12.00;5.97;;;;;;;;;;4801028;29;20053;-72
2023/01/12 14:28:41;;;;;;;9.10;5.20;;;;;;;;;;4805611;29;20043;-72
2023/01/12 14:31:24;;;;;;;15.25;6.78;;;;;;;;;;4800574;29;20046;-72
2023/01/12 14:33:52;;;;;;;14.45;6.72;;;;;;;;;;4802015;29;20039;-72
2023/01/12 14:36:41;;;;;;;23.33;8.27;;;;;;;;;;4802957;29;20148;-72
2023/01/12 14:39:14;;;;;;;23.45;9.80;;;;;;;;;;4797811;29;20066;-72
2023/01/12 14:47:25;;;;;;;23.08;9.65;;;;;;;;;;4821582;29;20449;-71
2023/01/12 14:49:51;;;;;;;15.60;8.05;;;;;;;;;;4859924;29;20129;-72
2023/01/12 14:52:33;;;;;;;24.45;9.35;;;;;;;;;;4858746;29;20025;-72
2023/01/12 14:55:26;;;;;;;18.08;8.93;;;;;;;;;;4857993;29;20041;-72
2023/01/12 14:58:04;;;;;;;20.05;9.10;;;;;;;;;;4857310;29;20069;-71
2023/01/12 15:00:34;;;;;;;20.80;9.48;;;;;;;;;;4855078;29;20049;-71
2023/01/12 15:03:06;;;;;;;15.30;8.45;;;;;;;;;;4858138;29;20052;-72
2023/01/12 15:05:35;;;;;;;15.57;8.65;;;;;;;;;;4858368;29;20034;-72
2023/01/12 15:08:18;;;;;;;19.85;9.73;;;;;;;;;;4858338;29;20037;-72
2023/01/12 15:10:55;;;;;;;18.20;9.27;;;;;;;;;;4859119;29;20098;-73
2023/01/12 15:13:28;;;;;;;19.88;11.05;;;;;;;;;;4861242;29;20045;-72
2023/01/12 15:27:17;;;;;;;31.23;14.05;;;;;;;;;;4866270;29;20045;-72
2023/01/12 15:29:43;;;;;;;25.83;12.07;;;;;;;;;;4850258;29;20033;-72
2023/01/12 15:32:17;;;;;;;31.70;17.05;;;;;;;;;;4868516;29;20361;-72
2023/01/12 15:34:44;;;;;;;37.88;20.73;;;;;;;;;;4870591;29;20033;-72
2023/01/12 15:37:14;;;;;;;37.47;19.60;;;;;;;;;;4875643;29;20029;-72
2023/01/12 15:39:48;;;;;;;36.75;20.67;;;;;;;;;;4875513;29;20518;-72
2023/01/12 15:42:16;;;;;;;39.15;21.80;;;;;;;;;;4860648;29;20539;-72
2023/01/12 15:44:46;;;;;;;38.55;23.48;;;;;;;;;;4873942;29;20025;-72
2023/01/12 15:47:13;;;;;;;45.28;27.45;;;;;;;;;;4869601;29;20037;-72
2023/01/12 15:49:41;;;;;;;52.47;30.00;;;;;;;;;;4871998;29;20058;-72